Time;durP1;ratioP1;P1;durP2;ratioP2;P2;SDS_P1;SDS_P2;PMS_P1;PMS_P2;Temp;Humidity;BMP_temperature;BMP_pressure;BME280_temperature;BME280_humidity;BME280_pressure;Samples;Min_cycle;Max_cycle;Signal;HPM_P1;HPM_P2
2022/11/04 00:01:44;;;;;;;5.28;2.22;;;11.10;99.90;;;;;;4999235;28;20124;-65
2022/11/04 00:04:12;;;;;;;6.70;1.70;;;11.10;99.90;;;;;;5016564;28;20391;-64
2022/11/04 00:06:38;;;;;;;5.22;1.80;;;11.00;99.90;;;;;;5016096;28;20148;-65
2022/11/04 00:09:06;;;;;;;5.88;2.22;;;11.00;99.90;;;;;;5032752;28;20037;-65
2022/11/04 00:14:16;;;;;;;4.45;1.83;;;11.00;99.90;;;;;;5015846;28;20521;-65
2022/11/04 00:19:27;;;;;;;4.47;1.48;;;11.00;99.90;;;;;;5033849;28;20406;-65
2022/11/04 00:30:08;;;;;;;3.47;0.60;;;10.90;99.90;;;;;;5014862;28;20168;-65
2022/11/04 00:35:38;;;;;;;1.95;0.43;;;10.80;99.90;;;;;;4937188;29;20062;-65
2022/11/04 00:38:04;;;;;;;1.80;0.88;;;10.80;99.90;;;;;;4952154;29;20043;-65
2022/11/04 00:40:29;;;;;;;2.78;0.60;;;10.80;99.90;;;;;;4990297;28;20045;-65
2022/11/04 00:42:55;;;;;;;4.13;0.60;;;10.80;99.90;;;;;;5014903;28;20045;-65
2022/11/04 00:45:21;;;;;;;7.18;1.55;;;10.80;99.90;;;;;;5032403;28;20037;-65
2022/11/04 00:47:46;;;;;;;5.28;0.60;;;10.80;99.90;;;;;;5014875;28;20041;-65
2022/11/04 00:50:12;;;;;;;5.43;1.35;;;10.80;99.90;;;;;;5015460;28;20045;-65
2022/11/04 00:52:38;;;;;;;3.22;1.10;;;10.80;99.90;;;;;;5014641;28;20048;-65
2022/11/04 00:55:04;;;;;;;4.40;0.95;;;10.80;99.90;;;;;;4998900;28;20494;-65
2022/11/04 00:57:29;;;;;;;8.32;1.23;;;10.80;99.90;;;;;;5014459;28;20144;-66
2022/11/04 00:59:55;;;;;;;5.47;0.90;;;10.80;99.90;;;;;;5032479;28;20593;-65
2022/11/04 01:02:21;;;;;;;5.07;1.10;;;10.80;99.90;;;;;;5015248;28;20049;-65
2022/11/04 01:04:46;;;;;;;5.78;1.10;;;10.80;99.90;;;;;;5031756;28;20462;-65
2022/11/04 01:07:12;;;;;;;5.18;1.08;;;10.80;99.90;;;;;;5015160;28;20073;-65
2022/11/04 01:09:38;;;;;;;3.65;1.00;;;10.80;99.90;;;;;;5015113;28;20099;-65
2022/11/04 01:12:03;;;;;;;3.75;1.20;;;10.80;99.90;;;;;;4997576;28;20041;-65
2022/11/04 01:14:29;;;;;;;7.65;2.05;;;10.80;99.90;;;;;;5014961;28;20041;-65
2022/11/04 01:16:55;;;;;;;5.43;0.90;;;10.70;99.90;;;;;;5014372;28;20053;-65
2022/11/04 01:19:21;;;;;;;4.63;1.25;;;10.70;99.90;;;;;;5014238;28;20073;-65
2022/11/04 01:21:50;;;;;;;8.00;1.27;;;10.80;99.90;;;;;;5014285;28;20096;-65
2022/11/04 01:24:15;;;;;;;6.60;1.17;;;10.80;99.90;;;;;;5014787;28;20418;-65
2022/11/04 01:26:41;;;;;;;5.43;1.15;;;10.80;99.90;;;;;;5013881;28;20120;-66
2022/11/04 01:29:07;;;;;;;8.80;1.20;;;10.80;99.90;;;;;;5032192;28;20040;-66
2022/11/04 01:31:33;;;;;;;12.52;1.45;;;10.80;99.90;;;;;;4998397;28;20037;-66
2022/11/04 01:33:59;;;;;;;8.88;1.13;;;10.70;99.90;;;;;;5030807;28;20049;-66
2022/11/04 01:36:26;;;;;;;3.03;0.77;;;10.80;99.90;;;;;;5014546;28;20506;-66
2022/11/04 01:38:53;;;;;;;6.88;1.02;;;10.80;99.90;;;;;;5031854;28;20087;-65
2022/11/04 01:41:30;;;;;;;8.15;1.33;;;10.70;99.90;;;;;;4997816;28;20441;-66
2022/11/04 01:44:00;;;;;;;10.88;1.52;;;10.70;99.90;;;;;;5031779;28;20051;-66
2022/11/04 01:46:42;;;;;;;11.35;1.50;;;10.70;99.90;;;;;;5014858;28;20049;-66
2022/11/04 01:49:29;;;;;;;6.88;1.73;;;10.70;99.90;;;;;;5014671;28;20394;-66
2022/11/04 01:52:09;;;;;;;9.20;1.73;;;10.70;99.90;;;;;;5014051;28;20090;-66
2022/11/04 01:54:35;;;;;;;6.47;1.60;;;10.70;99.90;;;;;;5013284;28;20079;-66
2022/11/04 01:57:04;;;;;;;5.95;1.20;;;10.70;99.90;;;;;;5014448;28;20041;-65
2022/11/04 01:59:35;;;;;;;9.23;1.10;;;10.70;99.90;;;;;;5014403;28;20046;-66
2022/11/04 02:02:01;;;;;;;6.45;0.98;;;10.70;99.90;;;;;;5013454;28;20041;-65
2022/11/04 02:04:28;;;;;;;6.47;1.17;;;10.60;99.90;;;;;;5014402;28;20049;-66
2022/11/04 02:07:01;;;;;;;5.90;1.10;;;10.60;99.90;;;;;;5013877;28;20042;-66
2022/11/04 02:09:29;;;;;;;9.80;1.30;;;10.60;99.90;;;;;;5013359;28;20037;-66
2022/11/04 02:14:40;;;;;;;8.82;1.88;;;10.60;99.90;;;;;;5031936;28;20048;-66
2022/11/04 02:17:18;;;;;;;8.70;1.85;;;10.60;99.90;;;;;;5013166;28;20045;-66
2022/11/04 02:20:19;;;;;;;8.40;1.63;;;10.60;99.90;;;;;;5014282;28;20510;-66
2022/11/04 02:23:06;;;;;;;6.60;1.30;;;10.60;99.90;;;;;;5016687;28;20479;-66
2022/11/04 02:25:51;;;;;;;6.75;1.40;;;10.60;99.90;;;;;;5033951;28;20568;-66
2022/11/04 02:28:35;;;;;;;7.30;1.08;;;10.60;99.90;;;;;;5034009;28;20045;-66
2022/11/04 02:31:06;;;;;;;5.57;1.33;;;10.50;99.90;;;;;;5032862;28;20383;-67
2022/11/04 02:33:40;;;;;;;4.55;0.90;;;10.50;99.90;;;;;;5017501;28;20033;-66
2022/11/04 02:36:45;;;;;;;5.13;1.10;;;10.50;99.90;;;;;;5032784;28;20045;-66
2022/11/04 02:39:21;;;;;;;6.72;1.23;;;10.50;99.90;;;;;;5011169;28;20198;-66
2022/11/04 02:42:00;;;;;;;5.07;1.23;;;10.50;99.90;;;;;;5033334;28;20044;-66
2022/11/04 02:44:40;;;;;;;6.22;1.30;;;10.50;99.90;;;;;;5050824;28;20041;-66
2022/11/04 02:47:28;;;;;;;6.03;1.00;;;10.50;99.90;;;;;;5036821;28;20056;-66
2022/11/04 02:50:13;;;;;;;7.28;1.02;;;10.40;99.90;;;;;;5036527;28;20049;-66
2022/11/04 02:52:49;;;;;;;6.32;1.15;;;10.40;99.90;;;;;;5054903;28;20551;-66
2022/11/04 02:55:24;;;;;;;8.13;1.63;;;10.40;99.90;;;;;;5055245;28;20485;-66
2022/11/04 02:57:53;;;;;;;4.43;0.87;;;10.40;99.90;;;;;;5036203;28;20037;-66
2022/11/04 03:00:20;;;;;;;4.93;1.73;;;10.40;99.90;;;;;;5055236;28;20803;-66
2022/11/04 03:02:53;;;;;;;9.82;1.52;;;10.40;99.90;;;;;;5036562;28;20052;-66
2022/11/04 03:05:29;;;;;;;6.47;1.08;;;10.40;99.90;;;;;;5036884;28;20424;-66
2022/11/04 03:07:59;;;;;;;9.32;1.67;;;10.40;99.90;;;;;;5036553;28;20049;-66
2022/11/04 03:10:37;;;;;;;10.55;1.58;;;10.40;99.90;;;;;;5055047;28;20379;-66
2022/11/04 03:13:23;;;;;;;6.88;1.50;;;10.40;99.90;;;;;;5053871;28;20072;-66
2022/11/04 03:16:02;;;;;;;9.30;1.67;;;10.40;99.90;;;;;;5036406;28;20497;-66
2022/11/04 03:18:55;;;;;;;6.05;1.35;;;10.40;99.90;;;;;;5036258;28;20044;-66
2022/11/04 03:21:23;;;;;;;7.78;1.40;;;10.40;99.90;;;;;;5036812;28;20045;-66
2022/11/04 03:23:48;;;;;;;5.60;1.17;;;10.40;99.90;;;;;;5023791;28;20092;-66
2022/11/04 03:26:36;;;;;;;4.68;1.10;;;10.40;99.90;;;;;;5016157;28;20084;-66
2022/11/04 03:29:13;;;;;;;7.70;1.65;;;10.40;99.90;;;;;;5034632;28;20052;-66
2022/11/04 03:32:02;;;;;;;5.82;1.23;;;10.40;99.90;;;;;;5034392;28;20041;-66
2022/11/04 03:34:29;;;;;;;5.60;1.33;;;10.40;99.90;;;;;;5005867;28;20050;-65
2022/11/04 03:36:55;;;;;;;16.08;2.20;;;10.40;99.90;;;;;;5016205;28;20066;-65
2022/11/04 03:39:21;;;;;;;6.65;1.60;;;10.40;99.90;;;;;;5016042;28;20112;-64
2022/11/04 03:41:52;;;;;;;4.90;1.40;;;10.40;99.90;;;;;;5033632;28;20120;-65
2022/11/04 03:44:18;;;;;;;6.72;1.52;;;10.50;99.90;;;;;;5016912;28;20395;-65
2022/11/04 03:46:44;;;;;;;3.85;1.02;;;10.50;99.90;;;;;;5015616;28;20043;-64
2022/11/04 03:49:11;;;;;;;6.00;1.52;;;10.50;99.90;;;;;;5034430;28;20037;-65
2022/11/04 03:51:36;;;;;;;5.15;1.23;;;10.50;99.90;;;;;;5033808;28;20084;-64
2022/11/04 03:54:02;;;;;;;7.70;1.45;;;10.50;99.90;;;;;;5033157;28;20482;-64
2022/11/04 03:57:02;;;;;;;4.60;1.27;;;10.40;99.90;;;;;;5000028;28;20037;-65
2022/11/04 03:59:37;;;;;;;4.35;1.40;;;10.40;99.90;;;;;;5016440;28;20064;-64
2022/11/04 04:02:26;;;;;;;5.72;0.98;;;10.40;99.90;;;;;;5015327;28;20073;-64
2022/11/04 04:04:59;;;;;;;4.82;1.20;;;10.40;99.90;;;;;;4999255;28;20069;-64
2022/11/04 04:07:27;;;;;;;6.13;1.10;;;10.30;99.90;;;;;;5015316;28;20495;-64
2022/11/04 04:10:37;;;;;;;5.07;0.93;;;10.30;99.90;;;;;;5015312;28;20052;-64
2022/11/04 04:12:59;;;;;;;7.30;1.10;;;10.30;99.90;;;;;;5015573;28;20414;-64
2022/11/04 04:15:37;;;;;;;6.30;1.20;;;10.20;99.90;;;;;;5015319;28;20041;-63
2022/11/04 04:18:06;;;;;;;4.10;1.00;;;10.20;99.90;;;;;;5015524;28;20080;-65
2022/11/04 04:20:36;;;;;;;5.43;1.48;;;10.20;99.90;;;;;;5016195;28;20112;-65
2022/11/04 04:28:52;;;;;;;3.50;0.80;;;10.10;99.90;;;;;;5014557;28;20050;-64
2022/11/04 04:34:03;;;;;;;4.32;1.00;;;10.10;99.90;;;;;;5033126;28;20048;-64
2022/11/04 04:36:31;;;;;;;3.95;1.15;;;10.10;99.90;;;;;;5014794;28;20037;-64
2022/11/04 04:47:47;;;;;;;2.30;0.90;;;10.00;99.90;;;;;;5015572;28;20050;-64
2022/11/04 04:50:15;;;;;;;3.42;0.70;;;10.00;99.90;;;;;;5014591;28;20116;-64
2022/11/04 04:52:45;;;;;;;5.55;1.20;;;10.00;99.90;;;;;;5015338;28;20033;-64
2022/11/04 04:55:12;;;;;;;3.83;0.80;;;10.00;99.90;;;;;;5015444;28;20116;-64
2022/11/04 04:57:38;;;;;;;4.05;1.23;;;10.00;99.90;;;;;;4997978;28;20141;-64
2022/11/04 05:00:05;;;;;;;7.05;1.77;;;10.00;99.90;;;;;;5015006;28;20076;-64
2022/11/04 05:02:31;;;;;;;6.05;1.23;;;10.00;99.90;;;;;;5032840;28;20124;-64
2022/11/04 05:04:58;;;;;;;7.75;1.25;;;10.00;99.90;;;;;;5014062;28;20124;-64
2022/11/04 05:07:24;;;;;;;6.50;1.17;;;10.00;99.90;;;;;;5032976;28;20056;-64
2022/11/04 05:09:50;;;;;;;3.40;0.90;;;10.00;99.90;;;;;;5031969;28;20037;-64
2022/11/04 05:12:16;;;;;;;5.07;1.15;;;10.00;99.90;;;;;;5032004;28;20046;-64
2022/11/04 05:14:41;;;;;;;6.30;1.58;;;10.00;99.90;;;;;;5015196;28;20048;-64
2022/11/04 05:17:07;;;;;;;4.60;1.05;;;10.00;99.90;;;;;;5014657;28;20403;-65
2022/11/04 05:19:33;;;;;;;4.40;1.10;;;10.00;99.90;;;;;;5031596;28;20080;-65
2022/11/04 05:21:58;;;;;;;5.93;1.60;;;10.00;99.90;;;;;;5014788;28;20034;-65
2022/11/04 05:24:24;;;;;;;8.85;1.40;;;10.00;99.90;;;;;;5017804;28;20100;-65
2022/11/04 05:26:50;;;;;;;5.72;1.40;;;10.00;99.90;;;;;;5013346;28;20056;-65
2022/11/04 05:29:15;;;;;;;6.97;1.40;;;10.00;99.90;;;;;;5015189;28;20081;-65
2022/11/04 05:31:41;;;;;;;3.88;1.13;;;10.00;99.90;;;;;;5014480;28;20045;-65
2022/11/04 05:34:10;;;;;;;7.07;1.30;;;9.90;99.90;;;;;;4997839;28;20037;-65
2022/11/04 05:36:36;;;;;;;4.65;1.20;;;9.90;99.90;;;;;;5031987;28;20041;-65
2022/11/04 05:39:02;;;;;;;4.97;1.13;;;9.80;99.90;;;;;;5013498;28;20041;-65
2022/11/04 05:41:28;;;;;;;4.78;1.00;;;9.80;99.90;;;;;;5014778;28;20098;-65
2022/11/04 05:43:56;;;;;;;9.57;1.52;;;9.80;99.90;;;;;;5014022;28;20482;-65
2022/11/04 05:46:23;;;;;;;2.30;0.85;;;9.70;99.90;;;;;;5013717;28;20049;-65
2022/11/04 05:48:49;;;;;;;7.60;1.75;;;9.70;99.90;;;;;;5014196;28;20047;-65
2022/11/04 05:51:17;;;;;;;9.27;1.10;;;9.70;99.90;;;;;;5032186;28;20077;-66
2022/11/04 05:53:42;;;;;;;4.68;0.90;;;9.70;99.90;;;;;;4997107;28;20042;-65
2022/11/04 05:56:08;;;;;;;4.55;1.15;;;9.70;99.90;;;;;;5031903;28;20040;-65
2022/11/04 05:58:34;;;;;;;7.95;1.30;;;9.80;99.90;;;;;;5014423;28;20048;-65
2022/11/04 06:01:28;;;;;;;4.40;0.80;;;9.70;99.90;;;;;;4997154;28;20131;-65
2022/11/04 06:03:54;;;;;;;5.32;1.35;;;9.70;99.90;;;;;;5031533;28;20046;-65
2022/11/04 06:06:21;;;;;;;4.40;1.10;;;9.70;99.90;;;;;;5014673;28;20372;-65
2022/11/04 06:08:49;;;;;;;5.07;0.98;;;9.70;99.90;;;;;;5013055;28;20041;-65
2022/11/04 06:11:14;;;;;;;9.25;1.45;;;9.70;99.90;;;;;;5032243;28;20051;-65
2022/11/04 06:13:40;;;;;;;8.68;1.48;;;9.70;99.90;;;;;;5014266;28;20104;-65
2022/11/04 06:16:06;;;;;;;5.82;1.58;;;9.60;99.90;;;;;;5013529;28;20052;-65
2022/11/04 06:18:32;;;;;;;4.32;1.00;;;9.60;99.90;;;;;;4997972;28;20043;-65
2022/11/04 06:21:12;;;;;;;10.10;1.30;;;9.50;99.90;;;;;;5014913;28;20045;-65
2022/11/04 06:23:39;;;;;;;7.45;1.23;;;9.50;99.90;;;;;;5020900;28;20497;-65
2022/11/04 06:26:05;;;;;;;5.18;1.38;;;9.40;99.90;;;;;;5055708;28;20055;-65
2022/11/04 06:28:31;;;;;;;5.97;1.10;;;9.30;99.90;;;;;;5037000;28;20542;-65
2022/11/04 06:30:58;;;;;;;5.50;1.15;;;9.30;99.90;;;;;;5020766;28;20045;-65
2022/11/04 06:33:24;;;;;;;3.47;1.20;;;9.30;99.90;;;;;;5037787;28;20041;-65
2022/11/04 06:35:50;;;;;;;5.05;1.30;;;9.30;99.90;;;;;;5054387;28;20044;-65
2022/11/04 06:38:15;;;;;;;4.50;1.65;;;9.30;99.90;;;;;;5037676;28;20037;-65
2022/11/04 06:40:41;;;;;;;4.03;1.60;;;9.20;99.90;;;;;;5055422;28;20041;-65
2022/11/04 06:43:07;;;;;;;8.02;1.80;;;9.20;99.90;;;;;;5020469;28;20053;-65
2022/11/04 06:45:32;;;;;;;5.60;1.35;;;9.20;99.90;;;;;;5020795;28;20041;-65
2022/11/04 06:47:58;;;;;;;5.75;2.13;;;9.20;99.90;;;;;;5020673;28;20040;-65
2022/11/04 06:50:24;;;;;;;4.22;1.42;;;9.10;99.90;;;;;;5054619;28;20052;-65
2022/11/04 06:52:49;;;;;;;6.57;1.52;;;9.10;99.90;;;;;;5037262;28;20040;-65
2022/11/04 06:55:15;;;;;;;8.32;1.30;;;9.00;99.90;;;;;;5055271;28;20041;-65
2022/11/04 06:57:40;;;;;;;9.35;1.50;;;9.00;99.90;;;;;;5054120;28;20045;-65
2022/11/04 07:00:07;;;;;;;6.90;1.60;;;9.00;99.90;;;;;;5036850;28;20044;-65
2022/11/04 07:02:32;;;;;;;3.92;1.48;;;8.90;99.90;;;;;;5054719;28;20087;-65
2022/11/04 07:04:58;;;;;;;9.60;1.85;;;8.90;99.90;;;;;;5054246;28;20064;-65
2022/11/04 07:07:24;;;;;;;5.18;1.35;;;8.90;99.90;;;;;;5037493;28;20044;-65
2022/11/04 07:09:49;;;;;;;7.47;1.52;;;8.90;99.90;;;;;;5036357;28;20055;-65
2022/11/04 07:12:15;;;;;;;8.18;1.80;;;8.90;99.90;;;;;;5054283;28;20076;-65
2022/11/04 07:14:41;;;;;;;8.75;1.92;;;8.90;99.90;;;;;;5054521;28;20059;-65
2022/11/04 07:17:06;;;;;;;6.30;2.00;;;8.90;99.90;;;;;;5036762;28;20059;-65
2022/11/04 07:19:32;;;;;;;10.02;2.35;;;8.90;99.90;;;;;;5019833;28;20100;-65
2022/11/04 07:21:58;;;;;;;6.43;1.77;;;8.80;99.90;;;;;;5036923;28;20041;-65
2022/11/04 07:24:23;;;;;;;7.00;1.77;;;8.80;99.90;;;;;;5035828;28;20048;-65
2022/11/04 07:26:49;;;;;;;13.10;2.38;;;8.80;99.90;;;;;;5036301;28;20523;-65
2022/11/04 07:29:15;;;;;;;4.55;1.73;;;8.80;99.90;;;;;;5020495;28;20433;-65
2022/11/04 07:31:42;;;;;;;5.53;1.77;;;8.80;99.90;;;;;;5034860;28;20041;-65
2022/11/04 07:34:07;;;;;;;5.35;1.45;;;8.80;99.90;;;;;;5053887;28;20413;-65
2022/11/04 07:36:33;;;;;;;6.55;1.73;;;8.80;99.90;;;;;;5036437;28;20039;-65
2022/11/04 07:38:59;;;;;;;6.25;1.90;;;8.70;99.90;;;;;;5035897;28;20507;-65
2022/11/04 07:41:25;;;;;;;8.68;1.70;;;8.80;99.90;;;;;;5036794;28;20045;-65
2022/11/04 07:43:52;;;;;;;7.00;2.28;;;8.70;99.90;;;;;;5053647;28;20048;-65
2022/11/04 07:46:19;;;;;;;11.77;2.22;;;8.70;99.90;;;;;;5035806;28;20048;-65
2022/11/04 07:48:45;;;;;;;5.57;1.58;;;8.70;99.90;;;;;;5034384;28;20127;-65
2022/11/04 07:51:15;;;;;;;6.05;2.03;;;8.70;99.90;;;;;;5054363;28;20120;-65
2022/11/04 07:53:41;;;;;;;7.65;1.80;;;8.60;99.90;;;;;;5053356;28;20037;-65
2022/11/04 07:56:13;;;;;;;6.18;2.70;;;8.60;99.90;;;;;;5019762;28;20421;-65
2022/11/04 07:58:39;;;;;;;5.82;1.88;;;8.70;99.90;;;;;;5035583;28;20079;-65
2022/11/04 08:01:09;;;;;;;7.68;2.17;;;8.70;99.90;;;;;;5053216;28;20048;-64
2022/11/04 08:03:35;;;;;;;5.07;1.83;;;8.70;99.90;;;;;;5036037;28;20394;-65
2022/11/04 08:06:03;;;;;;;7.07;2.25;;;8.70;99.90;;;;;;5035862;28;20044;-65
2022/11/04 08:08:29;;;;;;;7.57;1.98;;;8.70;99.90;;;;;;5031710;28;20041;-67
2022/11/04 08:11:00;;;;;;;5.65;2.00;;;8.80;99.90;;;;;;5051682;28;20063;-64
2022/11/04 08:13:30;;;;;;;7.45;2.35;;;8.80;99.90;;;;;;5053593;28;20032;-65
2022/11/04 08:15:59;;;;;;;9.40;1.80;;;8.90;99.90;;;;;;5052985;28;20493;-64
2022/11/04 08:18:25;;;;;;;9.77;2.30;;;9.00;99.90;;;;;;5035820;28;20041;-65
2022/11/04 08:20:51;;;;;;;10.20;2.10;;;9.00;99.90;;;;;;5049130;28;20804;-65
2022/11/04 08:23:17;;;;;;;5.05;1.70;;;9.10;99.90;;;;;;5028469;28;20090;-65
2022/11/04 08:25:44;;;;;;;7.53;1.65;;;9.30;99.90;;;;;;5031145;28;20089;-65
2022/11/04 08:28:16;;;;;;;5.65;1.73;;;9.40;99.90;;;;;;5013188;28;20079;-65
2022/11/04 08:31:06;;;;;;;7.72;2.40;;;9.50;99.90;;;;;;5030423;28;20049;-65
2022/11/04 08:33:34;;;;;;;8.60;2.28;;;9.60;99.90;;;;;;5013405;28;20410;-65
2022/11/04 08:36:16;;;;;;;5.60;1.92;;;9.70;99.90;;;;;;4995862;28;20072;-66
2022/11/04 08:38:52;;;;;;;5.53;1.40;;;9.80;99.90;;;;;;5013151;28;20052;-64
2022/11/04 08:41:21;;;;;;;6.18;1.65;;;9.90;99.90;;;;;;5012726;28;20517;-66
2022/11/04 08:43:47;;;;;;;3.92;1.63;;;9.90;99.90;;;;;;5029335;28;20041;-65
2022/11/04 08:46:13;;;;;;;4.97;1.65;;;9.90;99.90;;;;;;5012686;28;20033;-66
2022/11/04 08:48:40;;;;;;;6.72;2.17;;;10.00;99.90;;;;;;5012095;28;20463;-66
2022/11/04 08:51:15;;;;;;;7.40;1.73;;;10.10;99.90;;;;;;5030063;28;20048;-64
2022/11/04 08:53:41;;;;;;;7.72;2.03;;;10.20;99.90;;;;;;5030403;28;20141;-65
2022/11/04 08:56:12;;;;;;;5.53;1.88;;;10.20;99.90;;;;;;5009608;28;20072;-65
2022/11/04 08:58:38;;;;;;;7.15;1.73;;;10.30;99.90;;;;;;4996105;28;20045;-65
2022/11/04 09:01:05;;;;;;;7.05;2.35;;;10.30;99.90;;;;;;5009381;28;20504;-65
2022/11/04 09:03:33;;;;;;;6.43;1.83;;;10.30;99.90;;;;;;5003668;28;20050;-65
2022/11/04 09:05:59;;;;;;;5.78;2.05;;;10.40;99.90;;;;;;4993597;28;20049;-65
2022/11/04 09:08:25;;;;;;;5.10;1.50;;;10.50;99.90;;;;;;5030457;28;20052;-65
2022/11/04 09:10:52;;;;;;;3.38;1.40;;;10.60;99.90;;;;;;4994379;28;20111;-66
2022/11/04 09:13:17;;;;;;;4.35;1.35;;;10.70;99.90;;;;;;5030460;28;20509;-66
2022/11/04 09:15:43;;;;;;;4.30;1.17;;;10.80;99.90;;;;;;5028838;28;20045;-66
2022/11/04 09:18:09;;;;;;;4.72;1.70;;;10.90;99.90;;;;;;5010538;28;20044;-66
2022/11/04 09:20:38;;;;;;;5.90;1.50;;;11.00;99.90;;;;;;5008982;28;20375;-66
2022/11/04 09:23:05;;;;;;;4.28;1.67;;;11.00;99.90;;;;;;5020715;28;20049;-66
2022/11/04 09:25:31;;;;;;;5.50;1.67;;;11.00;99.90;;;;;;5013113;28;20053;-66
2022/11/04 09:27:58;;;;;;;4.78;1.83;;;11.00;99.90;;;;;;5031642;28;20095;-65
2022/11/04 09:30:24;;;;;;;5.32;1.52;;;11.10;99.90;;;;;;5015550;28;20052;-65
2022/11/04 09:32:49;;;;;;;5.63;1.30;;;11.10;99.90;;;;;;5030597;28;20033;-66
2022/11/04 09:35:16;;;;;;;4.80;1.38;;;11.20;99.90;;;;;;5015746;28;20437;-66
2022/11/04 09:37:42;;;;;;;4.43;1.00;;;11.30;99.90;;;;;;5031561;28;20045;-66
2022/11/04 09:40:14;;;;;;;7.53;1.70;;;11.40;99.90;;;;;;5013993;28;20439;-65
2022/11/04 09:42:48;;;;;;;10.35;2.10;;;11.50;99.90;;;;;;5031960;28;20442;-66
2022/11/04 09:45:17;;;;;;;4.32;1.40;;;11.60;99.90;;;;;;5031435;28;20110;-66
2022/11/04 09:47:46;;;;;;;5.15;1.48;;;11.60;99.90;;;;;;5049866;28;20037;-66
2022/11/04 09:50:43;;;;;;;6.97;1.60;;;11.70;99.90;;;;;;5030732;28;20406;-65
2022/11/04 09:53:20;;;;;;;7.18;1.70;;;11.60;99.90;;;;;;5044171;28;20509;-66
2022/11/04 09:55:54;;;;;;;7.32;1.77;;;11.60;99.90;;;;;;5049497;28;20041;-65
2022/11/04 09:58:20;;;;;;;10.00;2.45;;;11.60;99.90;;;;;;5030959;28;20121;-66
2022/11/04 10:01:15;;;;;;;7.30;2.17;;;11.60;99.90;;;;;;5029371;28;20120;-67
2022/11/04 10:04:01;;;;;;;7.67;1.70;;;11.70;99.90;;;;;;5043710;28;20451;-68
2022/11/04 10:06:54;;;;;;;10.57;1.75;;;11.70;99.90;;;;;;5015937;28;20036;-68
2022/11/04 10:10:09;;;;;;;7.10;1.58;;;11.80;99.90;;;;;;5017092;28;20064;-68
2022/11/04 10:13:05;;;;;;;11.45;2.40;;;11.70;99.90;;;;;;5026889;28;20100;-73
2022/11/04 10:15:30;;;;;;;;;;;11.70;99.90;;;;;;5034675;28;20037;-67
2022/11/04 10:18:02;;;;;;;5.88;1.60;;;11.60;99.90;;;;;;5033478;28;19917;-66
2022/11/04 10:20:33;;;;;;;7.10;1.70;;;11.60;99.90;;;;;;5015762;28;20064;-66
2022/11/04 10:23:31;;;;;;;6.03;1.90;;;11.60;99.90;;;;;;5029905;28;20090;-65
2022/11/04 10:26:04;;;;;;;7.50;2.63;;;11.60;99.90;;;;;;5013248;28;20061;-66
2022/11/04 10:28:37;;;;;;;11.02;2.00;;;11.70;99.90;;;;;;5046271;28;20040;-66
2022/11/04 10:31:04;;;;;;;7.15;2.00;;;11.70;99.90;;;;;;5030292;28;20052;-66
2022/11/04 10:33:37;;;;;;;6.32;2.20;;;11.80;99.90;;;;;;5026201;28;20046;-66
2022/11/04 10:36:08;;;;;;;5.20;1.90;;;11.70;99.90;;;;;;5039082;28;20481;-66
2022/11/04 10:38:40;;;;;;;6.45;1.65;;;11.70;99.90;;;;;;5030388;28;20437;-66
2022/11/04 10:41:23;;;;;;;7.32;1.63;;;11.70;99.90;;;;;;5029937;28;20080;-65
2022/11/04 10:43:52;;;;;;;10.55;1.65;;;11.60;99.90;;;;;;5033179;28;20056;-66
2022/11/04 10:46:59;;;;;;;5.25;1.73;;;11.60;99.90;;;;;;5033911;28;20095;-67
2022/11/04 10:49:54;;;;;;;4.57;1.20;;;11.60;99.90;;;;;;5050736;28;20114;-67
2022/11/04 10:52:20;;;;;;;3.55;1.00;;;11.60;99.90;;;;;;5051324;28;20041;-67
2022/11/04 10:54:48;;;;;;;6.45;1.55;;;11.60;99.90;;;;;;5031496;28;20124;-67
2022/11/04 10:57:23;;;;;;;5.85;1.38;;;11.50;99.90;;;;;;5016417;28;20573;-66
2022/11/04 10:59:52;;;;;;;3.78;1.17;;;11.30;99.90;;;;;;5032872;28;20080;-66
2022/11/04 11:02:18;;;;;;;6.40;2.55;;;11.10;99.90;;;;;;5051109;28;20416;-66
2022/11/04 11:04:46;;;;;;;5.60;1.73;;;11.00;99.90;;;;;;5029734;28;20083;-66
2022/11/04 11:07:18;;;;;;;5.53;1.65;;;10.90;99.90;;;;;;5049738;28;20033;-66
2022/11/04 11:09:59;;;;;;;6.22;1.50;;;10.90;99.90;;;;;;5034977;28;20029;-66
2022/11/04 11:12:29;;;;;;;7.72;2.20;;;10.80;99.90;;;;;;5033560;28;20033;-66
2022/11/04 11:14:56;;;;;;;6.68;2.15;;;10.80;99.90;;;;;;5026287;28;20048;-66
2022/11/04 11:17:37;;;;;;;5.20;1.92;;;10.80;99.90;;;;;;5033709;28;20128;-66
2022/11/04 11:20:21;;;;;;;5.15;1.83;;;10.80;99.90;;;;;;5030948;28;20049;-66
2022/11/04 11:22:50;;;;;;;8.90;2.72;;;10.80;99.90;;;;;;5018158;28;20048;-66
2022/11/04 11:25:24;;;;;;;6.43;2.33;;;10.80;99.90;;;;;;5051342;28;20063;-66
2022/11/04 11:28:04;;;;;;;10.23;3.60;;;10.80;99.90;;;;;;5032786;28;20486;-65
2022/11/04 11:30:37;;;;;;;8.13;2.65;;;10.70;99.90;;;;;;5034057;28;20202;-66
2022/11/04 11:33:07;;;;;;;9.75;2.30;;;10.70;99.90;;;;;;5034179;28;20478;-67
2022/11/04 11:35:40;;;;;;;5.82;1.90;;;10.70;99.90;;;;;;5034129;28;20470;-67
2022/11/04 11:38:17;;;;;;;6.35;2.20;;;10.80;99.90;;;;;;5032991;28;20037;-67
2022/11/04 11:40:44;;;;;;;5.28;2.15;;;10.80;99.90;;;;;;5051709;28;20055;-67
2022/11/04 11:43:25;;;;;;;13.18;3.38;;;10.90;99.90;;;;;;5050731;28;20041;-67
2022/11/04 11:45:53;;;;;;;9.40;3.20;;;11.00;99.90;;;;;;5004284;28;20109;-66
2022/11/04 11:48:49;;;;;;;12.13;2.92;;;11.00;99.90;;;;;;5033829;28;20114;-67
2022/11/04 11:51:23;;;;;;;6.10;1.90;;;11.20;99.90;;;;;;5014091;28;20080;-69
2022/11/04 11:54:01;;;;;;;7.40;2.53;;;11.10;99.90;;;;;;5043057;28;20575;-68
2022/11/04 11:56:33;;;;;;;9.25;3.22;;;11.20;99.90;;;;;;5016751;28;20059;-69
2022/11/04 11:59:22;;;;;;;10.50;2.85;;;11.20;99.90;;;;;;5032935;28;20033;-68
2022/11/04 12:02:19;;;;;;;8.23;2.17;;;11.30;99.90;;;;;;5016629;28;20080;-68
2022/11/04 12:04:46;;;;;;;9.35;2.47;;;11.40;99.90;;;;;;5023921;28;20060;-68
2022/11/04 12:07:35;;;;;;;9.10;2.67;;;11.50;99.90;;;;;;5030008;28;20060;-68
2022/11/04 12:10:51;;;;;;;7.72;1.77;;;11.50;99.90;;;;;;5033391;28;20797;-70
2022/11/04 12:13:24;;;;;;;10.68;1.80;;;11.60;99.90;;;;;;4940325;29;20126;-70
2022/11/04 12:16:14;;;;;;;7.78;2.03;;;11.70;99.90;;;;;;4942740;29;20043;-70
2022/11/04 12:18:47;;;;;;;6.15;1.90;;;11.80;99.90;;;;;;4993412;28;20053;-69
2022/11/04 12:21:35;;;;;;;5.82;1.50;;;11.80;99.90;;;;;;5033000;28;20488;-70
2022/11/04 12:24:13;;;;;;;9.20;1.98;;;11.80;99.90;;;;;;5026185;28;20065;-70
2022/11/04 12:27:17;;;;;;;9.70;1.73;;;11.80;99.90;;;;;;4996410;28;20490;-71
2022/11/04 12:30:00;;;;;;;7.78;1.90;;;11.90;99.90;;;;;;5012969;28;20056;-70
2022/11/04 12:32:31;;;;;;;8.13;1.90;;;11.90;99.90;;;;;;5030797;28;20063;-70
2022/11/04 12:35:22;;;;;;;6.97;2.42;;;12.00;99.90;;;;;;5011641;28;20386;-71
2022/11/04 12:38:18;;;;;;;7.20;2.05;;;12.00;99.90;;;;;;5009123;28;20077;-71
2022/11/04 12:41:36;;;;;;;11.30;1.67;;;12.10;99.90;;;;;;5010452;28;20526;-71
2022/11/04 12:44:20;;;;;;;4.78;1.35;;;12.10;99.90;;;;;;4935371;29;20047;-69
2022/11/04 12:47:03;;;;;;;9.00;2.25;;;12.20;99.90;;;;;;4933678;29;20118;-69
2022/11/04 12:49:38;;;;;;;6.70;2.08;;;12.20;99.90;;;;;;4989358;28;20501;-71
2022/11/04 12:52:06;;;;;;;7.85;1.80;;;12.20;99.90;;;;;;4995816;28;20045;-69
2022/11/04 12:54:44;;;;;;;9.55;1.90;;;12.30;99.90;;;;;;4996418;28;20049;-68
2022/11/04 12:57:24;;;;;;;8.95;1.80;;;12.30;99.90;;;;;;5012170;28;20049;-70
2022/11/04 13:00:08;;;;;;;6.60;1.75;;;12.30;99.90;;;;;;5012230;28;20052;-69
2022/11/04 13:02:43;;;;;;;6.28;2.03;;;12.30;99.90;;;;;;4995608;28;20053;-68
2022/11/04 13:05:12;;;;;;;;;;;12.30;99.90;;;;;;4996890;28;20064;-67
2022/11/04 13:07:49;;;;;;;8.95;1.90;;;12.30;99.90;;;;;;5030185;28;20034;-68
2022/11/04 13:10:24;;;;;;;5.28;1.52;;;12.30;99.90;;;;;;4995632;28;20504;-67
2022/11/04 13:12:52;;;;;;;7.88;1.85;;;12.30;99.90;;;;;;5009153;28;20490;-66
2022/11/04 13:15:27;;;;;;;7.30;1.70;;;12.30;99.90;;;;;;5019284;28;20497;-66
2022/11/04 13:17:58;;;;;;;;;;;12.30;99.90;;;;;;4995222;28;20049;-65
2022/11/04 13:20:46;;;;;;;8.20;1.95;;;12.40;99.90;;;;;;5030181;28;19917;-66
2022/11/04 13:23:40;;;;;;;9.55;2.58;;;12.40;99.90;;;;;;5000359;28;20562;-67
2022/11/04 13:26:13;;;;;;;7.18;2.20;;;12.40;99.90;;;;;;5009770;28;20081;-67
2022/11/04 13:28:40;;;;;;;6.60;1.67;;;12.50;99.90;;;;;;5029687;28;20033;-64
2022/11/04 13:31:15;;;;;;;8.40;1.85;;;12.50;99.90;;;;;;5022620;28;20049;-65
2022/11/04 13:33:57;;;;;;;11.35;1.98;;;12.50;99.90;;;;;;5027746;28;20053;-63
2022/11/04 13:36:44;;;;;;;7.82;1.88;;;12.50;99.90;;;;;;5041832;28;20402;-64
2022/11/04 13:39:36;;;;;;;6.30;2.15;;;12.50;99.90;;;;;;5017083;28;20120;-65
2022/11/04 13:42:33;;;;;;;10.70;2.22;;;12.40;99.90;;;;;;5007603;28;20061;-64
2022/11/04 13:45:09;;;;;;;6.75;1.73;;;12.40;99.90;;;;;;5023535;28;20045;-63
2022/11/04 13:47:41;;;;;;;10.23;2.30;;;12.40;99.90;;;;;;5011860;28;20045;-62
2022/11/04 13:50:29;;;;;;;9.20;1.60;;;12.30;99.90;;;;;;5028084;28;20454;-64
2022/11/04 13:52:55;;;;;;;6.03;1.65;;;12.40;99.90;;;;;;5026445;28;20082;-65
2022/11/04 13:55:20;;;;;;;8.95;1.73;;;12.30;99.90;;;;;;5010458;28;20029;-64